Etusivu
METAR-TAF:

METAR-TAF

Lentoasemat :

Peretolan lentoasema

Firenze, Italia

Leveyspiiri: 43-48N, Pituuspiiri: 011-12E, korkeus merenpinnasta: 40 m

Tämänhetkinen sää

Tämä raportti tehtiin 34 minuuttia sitten, kello 22.20 UTC
Tuuli 3 kn idästä
Lämpötila 4°C
Kosteus 60%
Ilmanpaine 1021 hPa
Näkyvyys 10 km tai enemmän
ei pilviä alle 1500 m:ssä eikä cumulonimbus-pilviä

METAR: LIRQ 282220Z 08003KT CAVOK 04/M03 Q1021

Aika: 23:54 (22:54 UTC)

Sääennuste

Tämä raportti tehtiin 5 tuntia ja 54 minuuttia sitten, kello 17.00 UTC
Ennuste voimassa 28. päivästä klo 18 UTC - 29. päivään klo 18 UTC
Tuuli 5 kn eri suunnista
Näkyvyys 10 km tai enemmän
Muutamia pilviä 3000 ft:n korkeudessa
Tulossa
29. päivästä klo 10 UTC - 29. päivään klo 12 UTC
Tuuli 12 kn etelästä/lounaasta

TAF: LIRQ 281700Z 2818/2918 VRB05KT 9999 FEW030 BECMG 2910/2912 21012KT

Säähavainnot ja -ennusteet yli 4000 lentoasemalta (METAR- ja TAF-raportit).

Käytössä olevat sääasemat on merkitty karttaan keltaisilla ja punaisilla pisteillä.

Aseta hiiri pisteen päälle nähdäksesi sääaseman nimen.

Klikkaa sitten nähdäksesi säähavainnot ja -ennusteet.

Kartan vaihtaminen: klikkaa mustalla rastilla varustettuja vihreitä pisteitä, niin voit zoomata sisään; viivalla varustettua vihreää pistettä, niin voit zoomata ulos tai vihreitä nuolia, niin pääset viereisille kartoille.


METAR-TAF: